createdAt,value
2022-10-30T08:29:44.264Z,58.90
2022-10-30T08:32:11.885Z,59.60
2022-10-30T08:35:18.692Z,59.40
2022-10-30T08:37:46.676Z,59.20
2022-10-30T08:40:14.005Z,67.90
2022-10-30T08:44:55.496Z,86.20
2022-10-30T08:49:57.376Z,90.00
2022-10-30T08:52:28.215Z,88.70
2022-10-30T08:54:56.625Z,87.00
2022-10-30T08:57:26.357Z,89.40
2022-10-30T08:59:55.526Z,87.50
2022-10-30T09:02:41.328Z,88.10
2022-10-30T09:05:59.819Z,84.20
2022-10-30T09:08:32.172Z,88.00
2022-10-30T09:12:17.014Z,88.90
2022-10-30T09:14:45.735Z,77.10
2022-10-30T09:17:12.645Z,70.90
2022-10-30T09:19:43.555Z,68.00
2022-10-30T09:22:13.652Z,66.50
2022-10-30T09:24:42.440Z,65.60
2022-10-30T09:27:28.094Z,72.90
2022-10-30T09:29:57.248Z,83.20
2022-10-30T09:32:29.270Z,87.30
2022-10-30T09:35:08.269Z,87.60
2022-10-30T09:37:40.538Z,87.60
2022-10-30T09:40:24.828Z,88.20
2022-10-30T09:42:54.390Z,88.60
2022-10-30T09:45:32.604Z,87.90
2022-10-30T09:48:17.620Z,88.40
2022-10-30T09:51:18.272Z,88.30
2022-10-30T09:54:10.383Z,88.30
2022-10-30T09:56:46.408Z,88.40
2022-10-30T09:59:25.799Z,87.90
2022-10-30T10:02:22.874Z,87.20
2022-10-30T10:04:58.306Z,87.80
2022-10-30T10:07:55.969Z,86.40
2022-10-30T10:10:44.166Z,87.60
2022-10-30T10:13:32.779Z,86.40
2022-10-30T10:16:20.376Z,86.20
2022-10-30T10:19:01.022Z,85.20
2022-10-30T10:21:29.514Z,84.00
2022-10-30T10:24:03.651Z,85.60
2022-10-30T10:27:01.892Z,84.80
2022-10-30T10:29:31.696Z,84.30
2022-10-30T10:32:25.876Z,85.00
2022-10-30T10:35:12.844Z,84.40
2022-10-30T10:37:46.252Z,85.10
2022-10-30T10:40:35.504Z,84.40
2022-10-30T10:43:17.112Z,84.90
2022-10-30T17:23:50.577Z,61.60
2022-10-30T17:26:18.602Z,60.20
2022-10-30T17:28:46.694Z,60.30
2022-10-30T17:31:25.444Z,69.00
2022-10-30T17:34:17.981Z,75.10
2022-10-30T17:36:46.460Z,79.20
2022-10-30T17:39:13.713Z,81.70
2022-10-30T17:41:40.909Z,83.20
2022-10-30T17:44:14.980Z,84.60
2022-10-30T17:46:41.840Z,86.10
2022-10-30T17:49:21.901Z,86.60
2022-10-30T17:51:48.650Z,87.40
2022-10-30T17:54:15.405Z,87.90
2022-10-30T17:56:42.276Z,87.80
2022-10-30T17:59:08.995Z,88.10
2022-10-30T18:01:35.950Z,88.40
2022-10-30T18:04:05.940Z,88.70
2022-10-30T18:06:32.730Z,89.10
2022-10-30T18:08:59.502Z,89.40
2022-10-30T18:11:27.200Z,89.30
2022-10-30T18:13:56.660Z,90.20
2022-10-30T18:16:23.953Z,89.40
2022-10-30T18:18:52.040Z,89.70
2022-10-30T18:21:20.877Z,89.60
2022-10-30T18:23:55.076Z,90.00
2022-10-30T18:26:26.998Z,89.80
2022-10-30T18:28:54.781Z,90.00
2022-10-30T18:31:23.975Z,90.20
2022-10-30T18:33:51.593Z,90.30
2022-10-30T18:36:21.498Z,99.90
2022-10-30T18:38:49.079Z,82.80
2022-10-30T18:41:33.683Z,79.40
2022-10-30T18:44:02.691Z,76.10
2022-10-30T18:46:33.845Z,74.40
2022-10-30T18:49:00.830Z,72.80
2022-10-30T18:51:28.638Z,70.70
2022-10-30T18:53:56.925Z,70.20
2022-10-30T18:56:26.819Z,69.70
2022-10-30T18:58:58.761Z,69.20
2022-10-30T19:01:33.017Z,68.40
2022-10-30T19:04:04.325Z,67.20
2022-10-30T19:06:34.353Z,67.00
2022-10-30T19:09:01.451Z,66.70
2022-10-30T19:11:30.861Z,66.30
2022-10-30T19:13:58.425Z,66.00
2022-10-30T19:16:25.523Z,65.50
2022-10-30T19:18:52.519Z,65.40
2022-10-30T19:21:22.054Z,65.20
2022-10-30T19:23:49.330Z,65.00
2022-10-30T19:26:17.422Z,64.80
2022-10-30T19:28:45.221Z,64.50
2022-10-30T19:31:17.148Z,64.40
2022-10-30T19:33:44.446Z,64.20
2022-10-30T19:36:27.053Z,63.90
2022-10-30T19:38:54.086Z,63.70
2022-10-30T19:41:21.049Z,63.60
2022-10-30T19:43:47.840Z,63.40
2022-10-30T19:46:15.206Z,63.30
2022-10-30T19:48:59.292Z,63.30
2022-10-30T19:51:27.590Z,63.00
2022-10-30T19:53:54.486Z,62.90
2022-10-30T19:56:21.992Z,62.90
2022-10-30T19:58:49.042Z,62.70
2022-10-30T20:01:16.327Z,62.70
2022-10-30T20:03:43.362Z,62.70
2022-10-30T20:06:14.184Z,62.60
2022-10-30T20:08:41.367Z,62.50
2022-10-30T20:11:08.680Z,62.40
2022-10-30T20:13:37.343Z,62.30
2022-10-30T20:16:05.359Z,62.20
2022-10-30T20:18:34.769Z,62.10
2022-10-30T20:21:04.701Z,62.00
2022-10-30T20:23:31.503Z,62.00
2022-10-30T20:26:06.489Z,62.00
2022-10-30T20:28:36.913Z,61.90
2022-10-30T20:31:04.791Z,61.90
2022-10-30T20:33:31.659Z,61.70
2022-10-30T20:35:58.807Z,61.60
2022-10-30T20:38:29.361Z,61.70
2022-10-30T20:40:57.259Z,61.60
2022-10-30T20:43:31.446Z,61.50
2022-10-30T20:46:02.672Z,61.40
2022-10-30T20:48:29.715Z,61.40
2022-10-30T20:50:57.899Z,61.40
2022-10-30T20:53:24.945Z,61.30
2022-10-30T20:55:52.144Z,61.30
2022-10-30T20:58:19.269Z,61.30
2022-10-30T21:00:46.604Z,61.30
2022-10-30T21:03:16.737Z,61.30
2022-10-30T21:05:45.940Z,61.20
2022-10-30T21:08:14.424Z,61.20
2022-10-30T21:10:41.693Z,61.20
2022-10-30T21:13:09.815Z,61.20
2022-10-30T21:15:42.443Z,61.20
2022-10-30T21:18:11.224Z,61.10
2022-10-30T21:20:38.691Z,61.10
2022-10-30T21:23:06.449Z,61.10
2022-10-30T21:25:33.621Z,61.10
2022-10-30T21:28:01.465Z,61.00
2022-10-30T21:30:28.618Z,60.90
2022-10-30T21:32:55.612Z,60.90
2022-10-30T21:35:22.357Z,62.90
2022-10-30T21:37:49.262Z,62.20
2022-10-30T21:40:16.203Z,62.10
2022-10-30T21:42:42.958Z,62.00
2022-10-30T21:45:10.051Z,61.90
2022-10-30T21:47:36.833Z,61.80
2022-10-30T21:50:07.684Z,61.70
2022-10-30T21:52:36.285Z,61.70
2022-10-30T21:55:03.371Z,61.60
2022-10-30T21:57:30.147Z,61.50
2022-10-30T21:59:58.912Z,61.60
2022-10-30T22:02:31.270Z,61.50
2022-10-30T22:04:58.032Z,61.30
2022-10-30T22:07:24.863Z,61.30
2022-10-30T22:09:52.550Z,61.20
2022-10-30T22:12:19.307Z,61.20
2022-10-30T22:14:46.038Z,61.10
2022-10-30T22:17:12.971Z,61.10
2022-10-30T22:19:39.775Z,61.00
2022-10-30T22:22:07.017Z,61.10
2022-10-30T22:24:33.855Z,62.10
2022-10-30T22:27:00.615Z,61.00
2022-10-30T22:29:27.474Z,60.90
2022-10-30T22:31:54.296Z,61.00
2022-10-30T22:34:21.111Z,60.80
2022-10-30T22:36:47.970Z,60.80
2022-10-30T22:39:15.018Z,60.80
2022-10-30T22:41:42.171Z,60.70
2022-10-30T22:44:13.624Z,60.70
2022-10-30T22:46:40.940Z,60.70
2022-10-30T22:49:08.083Z,60.80
2022-10-30T22:51:37.367Z,60.70
2022-10-30T22:54:06.612Z,60.70
2022-10-30T22:56:35.643Z,60.70
2022-10-30T22:59:05.980Z,60.70
2022-10-30T23:01:35.169Z,60.70
2022-10-30T23:04:03.516Z,60.60
2022-10-30T23:06:31.475Z,60.50
2022-10-30T23:09:01.047Z,60.70
2022-10-30T23:11:29.322Z,60.50
2022-10-30T23:13:56.847Z,60.50
2022-10-30T23:16:25.628Z,60.50
2022-10-30T23:18:55.302Z,60.40
2022-10-30T23:21:24.437Z,60.40
2022-10-30T23:23:51.770Z,60.40
2022-10-30T23:26:27.670Z,60.30
2022-10-30T23:28:55.937Z,60.20
2022-10-30T23:31:37.550Z,60.20
2022-10-30T23:34:07.902Z,60.30
2022-10-30T23:36:35.266Z,60.20
2022-10-30T23:39:04.300Z,60.10
2022-10-30T23:41:32.488Z,60.10
2022-10-30T23:44:05.222Z,60.00
2022-10-30T23:46:32.363Z,60.10
2022-10-30T23:48:59.271Z,60.10
2022-10-30T23:51:26.375Z,60.00
2022-10-30T23:53:53.141Z,60.20
2022-10-30T23:56:20.064Z,60.00
2022-10-30T23:58:48.911Z,59.90
